フォークランド諸島 の空港の天気 - METARとTAF

マウント・プレザント空軍基地 ( EGYP / MPN ) - フォークランド諸島 フォークランド諸島
飛行場実況気象(Metar)
観測時間08/13 17:50 FKST (08/13 20:50 UTC)
風向・風速北西 7m/s
視程10km以上
天気現象
少しの雲 雲底高度 610m
気温2℃
湿度81%
気圧996hPa
METAREGYP 132050Z 32013KT 9999 FEW020 02/M01 Q0996 BECMG 34015G25KT
過去の天気等 Google飛行場航空写真 Wunderground天気予報

過去48時間のMETAR

飛行場予報(TAF)
発表時間: 8/13 16:26 FKST (8/13 19:26 UTC)
予報対象時間: 13日18時 FKST ~ 14日12時 FKST
風向・風速北西 8m/s 瞬間風速 13m/s
視程10km以上
少しの雲 雲底高度 610m
13日18時 FKST ~ 13日20時 FKST に徐々に
風向・風速北 8m/s 瞬間風速 13m/s
13日19時 FKST ~ 14日2時 FKST に 確率 30% で一時的に
風向・風速不定 4m/s
13日21時 FKST ~ 14日1時 FKST に一時的に
風向・風速北 14m/s 瞬間風速 20m/s
全天の4割程度の雲 雲底高度 370m
14日1時 FKST ~ 14日3時 FKST に徐々に
天気現象弱い雨
全天の8割程度の雲 雲底高度 370m
14日1時 FKST ~ 14日5時 FKST に一時的に
風向・風速北北東 13m/s 瞬間風速 18m/s
視程4000m
天気現象
14日2時 FKST ~ 14日5時 FKST に 確率 30% で一時的に
視程3000m
天気現象強い雨
全天の8割程度の雲 雲底高度 180m
14日5時 FKST ~ 14日7時 FKST に徐々に
風向・風速西北西 9m/s 瞬間風速 14m/s
天気現象運行に影響にある天気現象が終了
少しの雲 雲底高度 760m
14日7時 FKST ~ 14日12時 FKST に一時的に
風向・風速西北西 14m/s 瞬間風速 20m/s
TAF EGYP 131926Z 1321/1415 31015G25KT 9999 FEW020
BECMG 1321/1323 01015G25KT 520003
PROB30 TEMPO 1322/1405 VRB07KT 560003
TEMPO 1400/1404 01028G38KT SCT012 530003
BECMG 1404/1406 -RA BKN012 50////
TEMPO 1404/1408 02025G35KT 4000 RA
PROB30 TEMPO 1405/1408 3000 +RA BKN006
BECMG 1408/1410 30018G28KT NSW FEW025
TEMPO 1410/1415 30028G38KT